Time;durP1;ratioP1;P1;durP2;ratioP2;P2;SDS_P1;SDS_P2;PMS_P1;PMS_P2;Temp;Humidity;BMP_temperature;BMP_pressure;BME280_temperature;BME280_humidity;BME280_pressure;Samples;Min_cycle;Max_cycle;Signal;HPM_P1;HPM_P2
2023/05/20 00:01:51;;;;;;;;;;;21.90;84.10;;;;;;5077775;28;20374;-51
2023/05/20 00:04:16;;;;;;;;;;;21.90;84.30;;;;;;5077453;28;19917;-50
2023/05/20 00:06:42;;;;;;;;;;;21.80;84.40;;;;;;5077319;28;20376;-54
2023/05/20 00:09:07;;;;;;;;;;;21.80;84.60;;;;;;5077064;28;19909;-52
2023/05/20 00:11:32;;;;;;;;;;;21.70;84.70;;;;;;5077040;28;19934;-54
2023/05/20 00:13:58;;;;;;;;;;;21.70;84.80;;;;;;5077212;28;19908;-49
2023/05/20 00:16:23;;;;;;;;;;;21.60;84.90;;;;;;5076833;28;19912;-53
2023/05/20 00:18:49;;;;;;;;;;;21.60;85.10;;;;;;5076796;28;20283;-51
2023/05/20 00:21:14;;;;;;;;;;;21.50;85.10;;;;;;5077054;28;19908;-53
2023/05/20 00:23:40;;;;;;;;;;;21.50;85.20;;;;;;5076967;28;19952;-53
2023/05/20 00:26:05;;;;;;;;;;;21.50;85.20;;;;;;5076974;28;19962;-52
2023/05/20 00:28:31;;;;;;;;;;;21.50;85.20;;;;;;5076974;28;19913;-52
2023/05/20 00:30:56;;;;;;;;;;;21.50;85.10;;;;;;5058974;28;19970;-51
2023/05/20 00:33:22;;;;;;;;;;;21.60;85.00;;;;;;5076759;28;19920;-54
2023/05/20 00:35:47;;;;;;;;;;;21.70;84.80;;;;;;5076460;28;20309;-53
2023/05/20 00:38:13;;;;;;;;;;;21.90;84.40;;;;;;5076374;28;19912;-53
2023/05/20 00:40:38;;;;;;;;;;;22.00;84.10;;;;;;5076640;28;20303;-52
2023/05/20 00:43:04;;;;;;;;;;;22.00;83.90;;;;;;5076624;28;19989;-52
2023/05/20 00:45:30;;;;;;;;;;;22.10;83.90;;;;;;5058577;28;19920;-50
2023/05/20 00:47:58;;;;;;;;;;;22.10;83.90;;;;;;5092301;28;19919;-50
2023/05/20 00:50:24;;;;;;;;;;;22.00;83.90;;;;;;5076593;28;19913;-51
2023/05/20 00:52:50;;;;;;;;;;;22.00;83.90;;;;;;5076236;28;19909;-54
2023/05/20 00:55:16;;;;;;;;;;;22.00;84.10;;;;;;5091960;28;19912;-52
2023/05/20 00:57:41;;;;;;;;;;;22.00;84.20;;;;;;5058453;28;19922;-53
2023/05/20 01:00:08;;;;;;;;;;;21.90;84.30;;;;;;5076040;28;20274;-48
2023/05/20 01:02:33;;;;;;;;;;;21.80;84.30;;;;;;5076075;28;19969;-53
2023/05/20 01:04:59;;;;;;;;;;;21.80;84.50;;;;;;5075517;28;19908;-51
2023/05/20 01:07:24;;;;;;;;;;;21.70;84.60;;;;;;5075974;28;20317;-53
2023/05/20 01:09:51;;;;;;;;;;;21.70;84.70;;;;;;5076264;28;19909;-52
2023/05/20 01:12:21;;;;;;;;;;;21.60;84.80;;;;;;5075923;28;19934;-54
2023/05/20 01:15:07;;;;;;;;;;;21.60;84.90;;;;;;5091560;28;19991;-51
2023/05/20 01:17:36;;;;;;;;;;;21.60;85.00;;;;;;5058267;28;20346;-53
2023/05/20 01:20:03;;;;;;;;;;;21.50;85.10;;;;;;5076397;28;19912;-51
2023/05/20 01:22:28;;;;;;;;;;;21.50;85.20;;;;;;5075635;28;19908;-51
2023/05/20 01:24:54;;;;;;;;;;;21.50;85.30;;;;;;5075882;28;19916;-51
2023/05/20 01:27:21;;;;;;;;;;;21.50;85.30;;;;;;5075750;28;20335;-54
2023/05/20 01:29:49;;;;;;;;;;;21.50;85.20;;;;;;5075483;28;20363;-53
2023/05/20 01:32:26;;;;;;;;;;;21.60;85.10;;;;;;5075368;28;20260;-52
2023/05/20 01:34:52;;;;;;;;;;;21.70;84.90;;;;;;5075509;28;19982;-54
2023/05/20 01:37:18;;;;;;;;;;;21.80;84.50;;;;;;5075372;28;19913;-52
2023/05/20 01:39:44;;;;;;;;;;;21.90;84.20;;;;;;5057707;28;19912;-53
2023/05/20 01:42:10;;;;;;;;;;;22.00;84.00;;;;;;5057195;28;19966;-51
2023/05/20 01:44:36;;;;;;;;;;;22.10;83.90;;;;;;5075049;28;19920;-52
2023/05/20 01:47:01;;;;;;;;;;;22.00;83.80;;;;;;5057650;28;19918;-51
2023/05/20 01:49:27;;;;;;;;;;;22.10;83.90;;;;;;5075124;28;20370;-54
2023/05/20 01:51:53;;;;;;;;;;;22.00;83.90;;;;;;5057419;28;19908;-53
2023/05/20 01:54:19;;;;;;;;;;;22.00;84.00;;;;;;5075329;28;19991;-51
2023/05/20 01:56:45;;;;;;;;;;;22.00;84.10;;;;;;5075243;28;19913;-55
2023/05/20 01:59:10;;;;;;;;;;;21.90;84.20;;;;;;5075270;28;20302;-50
2023/05/20 02:01:36;;;;;;;;;;;21.90;84.40;;;;;;5075173;28;19969;-52
2023/05/20 02:04:01;;;;;;;;;;;21.80;84.40;;;;;;5074803;28;19935;-51
2023/05/20 02:06:27;;;;;;;;;;;21.70;84.50;;;;;;5074722;28;19954;-52
2023/05/20 02:08:52;;;;;;;;;;;21.70;84.70;;;;;;5074708;28;20283;-54
2023/05/20 02:11:18;;;;;;;;;;;21.70;84.80;;;;;;5074834;28;19909;-51
2023/05/20 02:13:43;;;;;;;;;;;21.60;84.90;;;;;;5056856;28;19912;-52
2023/05/20 02:16:09;;;;;;;;;;;21.50;85.00;;;;;;5074502;28;19951;-50
2023/05/20 02:18:34;;;;;;;;;;;21.50;85.10;;;;;;5074819;28;19958;-49
2023/05/20 02:21:03;;;;;;;;;;;21.50;85.20;;;;;;5074430;28;19908;-54
2023/05/20 02:23:29;;;;;;;;;;;21.50;85.30;;;;;;5075152;28;19908;-53
2023/05/20 02:25:55;;;;;;;;;;;21.50;85.30;;;;;;5056776;28;19931;-51
2023/05/20 02:28:20;;;;;;;;;;;21.50;85.30;;;;;;5074641;28;19908;-51
2023/05/20 02:30:46;;;;;;;;;;;21.50;85.20;;;;;;5074681;28;20376;-53
2023/05/20 02:33:12;;;;;;;;;;;21.60;85.00;;;;;;5074556;28;20351;-48
2023/05/20 02:35:38;;;;;;;;;;;21.70;84.70;;;;;;5074669;28;20014;-51
2023/05/20 02:38:04;;;;;;;;;;;21.90;84.40;;;;;;5074494;28;20006;-50
2023/05/20 02:40:29;;;;;;;;;;;21.90;84.70;;;;;;5074514;28;19912;-51
2023/05/20 02:42:55;;;;;;;;;;;21.90;84.00;;;;;;5074274;28;20356;-52
2023/05/20 02:45:20;;;;;;;;;;;21.90;84.00;;;;;;5074235;28;19912;-51
2023/05/20 02:47:46;;;;;;;;;;;21.90;84.10;;;;;;5074416;28;19916;-48
2023/05/20 02:50:11;;;;;;;;;;;21.90;84.20;;;;;;5074080;28;20430;-52
2023/05/20 02:52:38;;;;;;;;;;;21.90;84.20;;;;;;5089964;28;19909;-50
2023/05/20 02:55:05;;;;;;;;;;;21.90;84.40;;;;;;5056307;28;19912;-50
2023/05/20 02:57:31;;;;;;;;;;;21.80;84.40;;;;;;5074277;28;19919;-51
2023/05/20 02:59:56;;;;;;;;;;;21.80;84.60;;;;;;5073943;28;19908;-52
2023/05/20 03:02:22;;;;;;;;;;;21.70;84.60;;;;;;5074239;28;20259;-53
2023/05/20 03:04:47;;;;;;;;;;;21.70;84.80;;;;;;5056299;28;19952;-54
2023/05/20 03:07:16;;;;;;;;;;;21.70;84.90;;;;;;5073936;28;19961;-51
2023/05/20 03:09:41;;;;;;;;;;;21.60;84.90;;;;;;5074108;28;19919;-53
2023/05/20 03:12:07;;;;;;;;;;;21.60;85.10;;;;;;5073786;28;19909;-52
2023/05/20 03:14:32;;;;;;;;;;;21.50;85.20;;;;;;5089787;28;19908;-52
2023/05/20 03:16:58;;;;;;;;;;;21.50;85.30;;;;;;5073778;28;20355;-53
2023/05/20 03:19:24;;;;;;;;;;;21.50;85.30;;;;;;5073698;28;19913;-49
2023/05/20 03:21:50;;;;;;;;;;;21.50;85.40;;;;;;5073741;28;20342;-50
2023/05/20 03:24:15;;;;;;;;;;;21.50;85.40;;;;;;5074251;28;19908;-49
2023/05/20 03:26:42;;;;;;;;;;;21.50;85.40;;;;;;5073960;28;20012;-49
2023/05/20 03:29:08;;;;;;;;;;;21.60;85.20;;;;;;5059600;28;19908;-51
2023/05/20 03:31:34;;;;;;;;;;;21.70;85.00;;;;;;5078006;28;19908;-54
2023/05/20 03:33:59;;;;;;;;;;;21.80;84.60;;;;;;5077820;28;20268;-53
2023/05/20 03:36:25;;;;;;;;;;;21.90;84.30;;;;;;5077512;28;19913;-51
2023/05/20 03:38:50;;;;;;;;;;;22.00;84.10;;;;;;5077892;28;19920;-51
2023/05/20 03:41:16;;;;;;;;;;;22.00;83.90;;;;;;5077553;28;19962;-54
2023/05/20 03:43:41;;;;;;;;;;;22.00;83.90;;;;;;5077681;28;19947;-52
2023/05/20 03:46:07;;;;;;;;;;;22.00;84.00;;;;;;5077486;28;20267;-54
2023/05/20 03:48:32;;;;;;;;;;;22.00;84.10;;;;;;5077389;28;20386;-53
2023/05/20 03:50:58;;;;;;;;;;;21.90;84.10;;;;;;5077685;28;20047;-51
2023/05/20 03:53:23;;;;;;;;;;;21.90;84.20;;;;;;5078030;28;19916;-50
2023/05/20 03:55:49;;;;;;;;;;;21.80;84.30;;;;;;5059476;28;19913;-52
2023/05/20 03:58:14;;;;;;;;;;;21.80;84.50;;;;;;5077782;28;20359;-54
2023/05/20 04:00:40;;;;;;;;;;;21.80;84.70;;;;;;5077195;28;20003;-52
2023/05/20 04:03:05;;;;;;;;;;;21.70;84.70;;;;;;5059534;28;19908;-52
2023/05/20 04:05:31;;;;;;;;;;;21.70;84.80;;;;;;5077401;28;19912;-52
2023/05/20 04:07:56;;;;;;;;;;;21.70;85.00;;;;;;5077020;28;20292;-53
2023/05/20 04:10:22;;;;;;;;;;;21.60;85.10;;;;;;5059422;28;19965;-53
2023/05/20 04:12:48;;;;;;;;;;;21.60;85.20;;;;;;5077249;28;19931;-49
2023/05/20 04:15:14;;;;;;;;;;;21.50;85.20;;;;;;5077036;28;19917;-53
2023/05/20 04:17:40;;;;;;;;;;;21.50;85.30;;;;;;5077196;28;19913;-52
2023/05/20 04:20:06;;;;;;;;;;;21.50;85.40;;;;;;5077178;28;20359;-50
2023/05/20 04:22:32;;;;;;;;;;;21.50;85.50;;;;;;5076916;28;19912;-51
2023/05/20 04:24:58;;;;;;;;;;;21.50;85.40;;;;;;5077005;28;19931;-48
2023/05/20 04:27:24;;;;;;;;;;;21.60;85.30;;;;;;5076621;28;19909;-52
2023/05/20 04:29:51;;;;;;;;;;;21.70;84.90;;;;;;5059032;28;20008;-51
2023/05/20 04:32:17;;;;;;;;;;;21.90;84.50;;;;;;5076778;28;20259;-52
2023/05/20 04:34:44;;;;;;;;;;;22.00;84.10;;;;;;5076486;28;20367;-53
2023/05/20 04:37:09;;;;;;;;;;;22.10;83.80;;;;;;5076737;28;19923;-52
2023/05/20 04:39:35;;;;;;;;;;;22.10;83.70;;;;;;5058720;28;19909;-51
2023/05/20 04:42:01;;;;;;;;;;;22.10;83.60;;;;;;5058804;28;19999;-52
2023/05/20 04:44:28;;;;;;;;;;;22.10;83.70;;;;;;5076841;28;20355;-50
2023/05/20 04:46:54;;;;;;;;;;;22.10;83.70;;;;;;5076338;28;19997;-52
2023/05/20 04:49:24;;;;;;;;;;;22.00;83.80;;;;;;5076176;28;20126;-52
2023/05/20 04:51:50;;;;;;;;;;;22.00;83.90;;;;;;5076270;28;19915;-52
2023/05/20 04:54:16;;;;;;;;;;;22.00;84.10;;;;;;5076206;28;19916;-54
2023/05/20 04:56:43;;;;;;;;;;;21.90;84.20;;;;;;5076053;28;19917;-51
2023/05/20 04:59:09;;;;;;;;;;;21.90;84.30;;;;;;5076178;28;20256;-54
2023/05/20 05:01:35;;;;;;;;;;;21.80;84.50;;;;;;5058561;28;19930;-55
2023/05/20 05:04:01;;;;;;;;;;;21.80;84.60;;;;;;5076304;28;19908;-53
2023/05/20 05:06:26;;;;;;;;;;;21.70;84.70;;;;;;5076218;28;19915;-52
2023/05/20 05:08:52;;;;;;;;;;;21.70;84.90;;;;;;5057839;28;19916;-52
2023/05/20 05:11:17;;;;;;;;;;;21.60;84.90;;;;;;5058006;28;19962;-52
2023/05/20 05:13:43;;;;;;;;;;;21.60;85.60;;;;;;5076152;28;20372;-54
2023/05/20 05:16:08;;;;;;;;;;;21.60;85.20;;;;;;5057624;28;19919;-54
2023/05/20 05:18:34;;;;;;;;;;;21.50;85.30;;;;;;5075944;28;20373;-52
2023/05/20 05:21:00;;;;;;;;;;;21.50;85.40;;;;;;5075903;28;19909;-52
2023/05/20 05:23:26;;;;;;;;;;;21.50;85.40;;;;;;5075637;28;20284;-50
2023/05/20 05:25:51;;;;;;;;;;;21.50;85.50;;;;;;5075850;28;20359;-53
2023/05/20 05:28:17;;;;;;;;;;;21.50;85.40;;;;;;5075807;28;20343;-50
2023/05/20 05:30:42;;;;;;;;;;;21.60;85.20;;;;;;5075517;28;19909;-53
2023/05/20 05:33:08;;;;;;;;;;;21.80;84.90;;;;;;5075688;28;20421;-49
2023/05/20 05:35:33;;;;;;;;;;;21.90;84.40;;;;;;5075436;28;19912;-52
2023/05/20 05:37:59;;;;;;;;;;;22.00;84.00;;;;;;5075113;28;19924;-52
2023/05/20 05:40:25;;;;;;;;;;;22.20;83.80;;;;;;5075093;28;20390;-52
2023/05/20 05:42:51;;;;;;;;;;;22.20;83.70;;;;;;5075127;28;20267;-53
2023/05/20 05:45:16;;;;;;;;;;;22.20;83.60;;;;;;5075471;28;20347;-54
2023/05/20 05:47:42;;;;;;;;;;;22.20;83.70;;;;;;5074975;28;20330;-53
2023/05/20 05:50:08;;;;;;;;;;;22.10;83.70;;;;;;5074707;28;19908;-49
2023/05/20 05:52:34;;;;;;;;;;;22.10;83.80;;;;;;5075260;28;19984;-53
2023/05/20 05:54:59;;;;;;;;;;;22.00;83.90;;;;;;5075114;28;19932;-53
2023/05/20 05:57:25;;;;;;;;;;;22.00;84.00;;;;;;5075012;28;19974;-53
2023/05/20 05:59:50;;;;;;;;;;;22.00;84.10;;;;;;5074670;28;20386;-52
2023/05/20 06:02:16;;;;;;;;;;;21.90;84.30;;;;;;5074741;28;19917;-52
2023/05/20 06:04:41;;;;;;;;;;;21.80;84.40;;;;;;5075025;28;19999;-53
2023/05/20 06:07:07;;;;;;;;;;;21.80;84.60;;;;;;5057060;28;20002;-53
2023/05/20 06:09:32;;;;;;;;;;;21.80;84.80;;;;;;5074655;28;19908;-50
2023/05/20 06:11:58;;;;;;;;;;;21.70;84.90;;;;;;5090391;28;19995;-49
2023/05/20 06:14:23;;;;;;;;;;;21.70;85.00;;;;;;5074661;28;20013;-54
2023/05/20 06:16:49;;;;;;;;;;;21.60;85.10;;;;;;5074602;28;20426;-52
2023/05/20 06:19:14;;;;;;;;;;;21.60;85.20;;;;;;5090114;28;19917;-53
2023/05/20 06:21:40;;;;;;;;;;;21.60;85.30;;;;;;5074293;28;19962;-51
2023/05/20 06:24:05;;;;;;;;;;;21.50;85.30;;;;;;5074202;28;19916;-51
2023/05/20 06:26:31;;;;;;;;;;;21.50;85.30;;;;;;5074622;28;20116;-50
2023/05/20 06:28:56;;;;;;;;;;;21.60;85.20;;;;;;5074485;28;19909;-52
2023/05/20 06:31:22;;;;;;;;;;;21.70;85.10;;;;;;5074635;28;19912;-52
2023/05/20 06:33:47;;;;;;;;;;;21.90;84.80;;;;;;5074397;28;19955;-52
2023/05/20 06:36:13;;;;;;;;;;;22.00;84.40;;;;;;5073770;28;20045;-53
2023/05/20 06:38:38;;;;;;;;;;;22.20;84.10;;;;;;5074238;28;19923;-54
2023/05/20 06:41:04;;;;;;;;;;;22.20;83.80;;;;;;5074356;28;19916;-53
2023/05/20 06:43:29;;;;;;;;;;;22.20;83.60;;;;;;5073879;28;19921;-54
2023/05/20 06:45:55;;;;;;;;;;;22.20;83.60;;;;;;5074206;28;19909;-53
2023/05/20 06:48:20;;;;;;;;;;;22.20;83.60;;;;;;5073798;28;19908;-48
2023/05/20 06:50:46;;;;;;;;;;;22.20;83.70;;;;;;5074120;28;19915;-54
2023/05/20 06:53:11;;;;;;;;;;;22.10;83.80;;;;;;5074117;28;19918;-52
2023/05/20 06:55:37;;;;;;;;;;;22.10;84.00;;;;;;5074132;28;20035;-51
2023/05/20 06:58:02;;;;;;;;;;;22.00;84.10;;;;;;5073842;28;19913;-49
2023/05/20 07:00:28;;;;;;;;;;;22.00;84.20;;;;;;5074178;28;19915;-52
2023/05/20 07:02:53;;;;;;;;;;;21.90;84.30;;;;;;5073056;28;19912;-53
2023/05/20 07:05:19;;;;;;;;;;;21.90;85.00;;;;;;5073625;28;19908;-52
2023/05/20 07:07:44;;;;;;;;;;;21.80;84.60;;;;;;5073387;28;19955;-50
2023/05/20 07:10:10;;;;;;;;;;;21.80;84.70;;;;;;5074033;28;19909;-55
2023/05/20 07:12:35;;;;;;;;;;;21.80;84.90;;;;;;5073624;28;20369;-54
2023/05/20 07:15:01;;;;;;;;;;;21.70;84.90;;;;;;5073509;28;19931;-48
2023/05/20 07:17:28;;;;;;;;;;;21.70;85.00;;;;;;5074234;28;20276;-52
2023/05/20 07:19:54;;;;;;;;;;;21.70;85.10;;;;;;5055976;28;19916;-52
2023/05/20 07:22:19;;;;;;;;;;;21.60;85.10;;;;;;5089320;28;19916;-53
2023/05/20 07:24:45;;;;;;;;;;;21.70;85.20;;;;;;5089399;28;19908;-51
2023/05/20 07:27:10;;;;;;;;;;;21.70;85.00;;;;;;5073677;28;19909;-51
2023/05/20 07:29:36;;;;;;;;;;;21.80;84.90;;;;;;5073753;28;19916;-51
2023/05/20 07:32:01;;;;;;;;;;;21.90;84.60;;;;;;5074077;28;20003;-53
2023/05/20 07:34:27;;;;;;;;;;;22.10;84.30;;;;;;5073557;28;19908;-51
2023/05/20 07:36:53;;;;;;;;;;;22.10;84.00;;;;;;5073214;28;19912;-54
2023/05/20 07:39:18;;;;;;;;;;;22.20;84.40;;;;;;5073633;28;19919;-53
2023/05/20 07:41:44;;;;;;;;;;;22.20;83.80;;;;;;5073619;28;19909;-54
2023/05/20 07:44:11;;;;;;;;;;;22.20;83.80;;;;;;5073701;28;20417;-53
2023/05/20 07:46:37;;;;;;;;;;;22.20;83.90;;;;;;5073270;28;19909;-51
2023/05/20 07:49:02;;;;;;;;;;;22.10;83.90;;;;;;5073148;28;19919;-53
2023/05/20 07:51:28;;;;;;;;;;;22.10;84.00;;;;;;5073548;28;20003;-53
2023/05/20 07:53:53;;;;;;;;;;;22.10;84.20;;;;;;5055713;28;19915;-52
2023/05/20 07:56:20;;;;;;;;;;;22.00;84.80;;;;;;5073174;28;19912;-52
2023/05/20 07:58:51;;;;;;;;;;;22.00;84.40;;;;;;5073378;28;19913;-53
2023/05/20 08:01:16;;;;;;;;;;;21.90;84.60;;;;;;5073190;28;19947;-52
2023/05/20 08:03:42;;;;;;;;;;;21.90;84.70;;;;;;5073345;28;19912;-51
2023/05/20 08:06:07;;;;;;;;;;;21.80;84.80;;;;;;5073042;28;19991;-53
2023/05/20 08:08:33;;;;;;;;;;;21.80;84.90;;;;;;5072897;28;19964;-54
2023/05/20 08:11:00;;;;;;;;;;;21.80;85.00;;;;;;5073258;28;19908;-53
2023/05/20 08:13:26;;;;;;;;;;;21.80;85.10;;;;;;5089471;28;19924;-52
2023/05/20 08:15:52;;;;;;;;;;;21.70;85.20;;;;;;5076878;28;19916;-54
2023/05/20 08:18:17;;;;;;;;;;;21.70;85.30;;;;;;5076536;28;19912;-50
2023/05/20 08:20:43;;;;;;;;;;;21.60;85.30;;;;;;5077325;28;20344;-54
2023/05/20 08:23:08;;;;;;;;;;;21.60;85.40;;;;;;5077060;28;19908;-54
2023/05/20 08:25:34;;;;;;;;;;;21.70;85.40;;;;;;5059017;28;19909;-54
2023/05/20 08:28:00;;;;;;;;;;;21.70;85.30;;;;;;5058888;28;20240;-51
2023/05/20 08:30:26;;;;;;;;;;;21.80;85.10;;;;;;5076503;28;19915;-51
2023/05/20 08:32:51;;;;;;;;;;;22.00;84.90;;;;;;5076754;28;20325;-52
2023/05/20 08:35:17;;;;;;;;;;;22.10;84.90;;;;;;5092144;28;19913;-54
2023/05/20 08:37:42;;;;;;;;;;;22.20;84.10;;;;;;5076123;28;20007;-50
2023/05/20 08:40:08;;;;;;;;;;;22.30;83.90;;;;;;5076903;28;19913;-54
2023/05/20 08:42:34;;;;;;;;;;;22.30;83.80;;;;;;5076484;28;19908;-54
2023/05/20 08:45:00;;;;;;;;;;;22.30;83.80;;;;;;5076585;28;19916;-54
2023/05/20 08:47:25;;;;;;;;;;;22.20;83.90;;;;;;5076388;28;20376;-52
2023/05/20 08:49:51;;;;;;;;;;;22.20;83.90;;;;;;5076367;28;20368;-51
2023/05/20 08:52:17;;;;;;;;;;;22.20;84.10;;;;;;5076137;28;20006;-52
2023/05/20 08:54:44;;;;;;;;;;;22.10;84.20;;;;;;5076287;28;19912;-52
2023/05/20 08:57:12;;;;;;;;;;;22.10;84.30;;;;;;5075805;28;20019;-52
2023/05/20 08:59:42;;;;;;;;;;;22.10;84.40;;;;;;5076260;28;19913;-51
2023/05/20 09:02:07;;;;;;;;;;;22.00;84.50;;;;;;5076081;28;20433;-52
2023/05/20 09:04:33;;;;;;;;;;;22.00;84.70;;;;;;5076032;28;20004;-51
2023/05/20 09:06:58;;;;;;;;;;;21.90;84.80;;;;;;5076012;28;19908;-53
2023/05/20 09:09:24;;;;;;;;;;;21.90;84.90;;;;;;5075739;28;20039;-51
2023/05/20 09:11:49;;;;;;;;;;;21.80;85.00;;;;;;5075728;28;19958;-52
2023/05/20 09:14:15;;;;;;;;;;;21.80;85.20;;;;;;5075444;28;19909;-53
2023/05/20 09:16:41;;;;;;;;;;;21.80;85.30;;;;;;5075773;28;19912;-52
2023/05/20 09:19:08;;;;;;;;;;;21.70;85.30;;;;;;5075349;28;19912;-49
2023/05/20 09:21:34;;;;;;;;;;;21.70;85.50;;;;;;5075522;28;19908;-50
2023/05/20 09:24:02;;;;;;;;;;;21.70;85.50;;;;;;5075627;28;20279;-54
2023/05/20 09:26:28;;;;;;;;;;;21.60;85.60;;;;;;5074614;28;19915;-50
2023/05/20 09:28:57;;;;;;;;;;;21.60;85.70;;;;;;5075542;28;19908;-51
2023/05/20 09:31:27;;;;;;;;;;;21.60;85.70;;;;;;5075594;28;19912;-50
2023/05/20 09:33:53;;;;;;;;;;;21.60;85.70;;;;;;5091147;28;20004;-52
2023/05/20 09:36:19;;;;;;;;;;;21.60;85.70;;;;;;5075123;28;19912;-51
2023/05/20 09:38:46;;;;;;;;;;;21.60;85.60;;;;;;5075161;28;19912;-51
2023/05/20 09:41:12;;;;;;;;;;;21.70;85.50;;;;;;5075173;28;20271;-50
2023/05/20 09:43:41;;;;;;;;;;;21.80;85.40;;;;;;5075371;28;19921;-51
2023/05/20 09:46:07;;;;;;;;;;;21.80;85.20;;;;;;5075163;28;20275;-49
2023/05/20 09:48:38;;;;;;;;;;;21.90;85.00;;;;;;5057370;28;19919;-49
2023/05/20 09:51:05;;;;;;;;;;;21.90;84.80;;;;;;5075009;28;20002;-51
2023/05/20 09:53:31;;;;;;;;;;;22.00;84.70;;;;;;5075545;28;20351;-51
2023/05/20 09:55:57;;;;;;;;;;;22.10;84.60;;;;;;5075308;28;19913;-52
2023/05/20 09:58:23;;;;;;;;;;;22.10;84.50;;;;;;5057158;28;19916;-52
2023/05/20 10:00:48;;;;;;;;;;;22.10;84.40;;;;;;5075010;28;19909;-54
2023/05/20 10:03:14;;;;;;;;;;;22.20;84.30;;;;;;5074978;28;19915;-53
2023/05/20 10:05:41;;;;;;;;;;;22.10;84.30;;;;;;5074732;28;19909;-53
2023/05/20 10:08:22;;;;;;;;;;;22.10;84.30;;;;;;5056787;28;19915;-53
2023/05/20 10:10:52;;;;;;;;;;;22.10;84.40;;;;;;5074345;28;20385;-52
2023/05/20 10:13:31;;;;;;;;;;;22.10;84.40;;;;;;5074711;28;20212;-52
2023/05/20 10:16:16;;;;;;;;;;;22.10;84.50;;;;;;5074469;28;19912;-52
2023/05/20 10:18:44;;;;;;;;;;;22.00;84.60;;;;;;5074666;28;20282;-53
2023/05/20 10:21:16;;;;;;;;;;;22.00;84.70;;;;;;5074853;28;19965;-48
2023/05/20 10:23:41;;;;;;;;;;;21.90;84.80;;;;;;5056864;28;20385;-50
2023/05/20 10:26:07;;;;;;;;;;;21.90;84.90;;;;;;5074693;28;19908;-49
2023/05/20 10:28:34;;;;;;;;;;;21.90;85.00;;;;;;5074545;28;19908;-54
2023/05/20 10:31:00;;;;;;;;;;;21.80;85.00;;;;;;5074230;28;19962;-52
2023/05/20 10:33:29;;;;;;;;;;;21.80;85.10;;;;;;5074226;28;20244;-53
2023/05/20 10:35:58;;;;;;;;;;;21.80;85.20;;;;;;5074061;28;20326;-49
2023/05/20 10:38:24;;;;;;;;;;;21.80;85.20;;;;;;5074232;28;19912;-49
2023/05/20 10:40:49;;;;;;;;;;;21.80;85.20;;;;;;5074351;28;19908;-51
2023/05/20 10:43:17;;;;;;;;;;;21.80;85.30;;;;;;5073769;28;19974;-49
2023/05/20 10:45:50;;;;;;;;;;;21.80;85.30;;;;;;5074096;28;19909;-50
2023/05/20 10:48:24;;;;;;;;;;;21.80;85.20;;;;;;5074093;28;19915;-53
2023/05/20 10:50:50;;;;;;;;;;;21.80;85.10;;;;;;5074045;28;19918;-49
2023/05/20 10:53:15;;;;;;;;;;;21.90;85.10;;;;;;5074132;28;20003;-54
2023/05/20 10:55:48;;;;;;;;;;;21.90;85.00;;;;;;5073801;28;20136;-53
2023/05/20 10:58:13;;;;;;;;;;;21.90;84.90;;;;;;5073686;28;20394;-50
2023/05/20 11:00:39;;;;;;;;;;;22.00;84.90;;;;;;5074086;28;19908;-50
2023/05/20 11:03:05;;;;;;;;;;;22.00;84.70;;;;;;5073972;28;19930;-51
2023/05/20 11:05:31;;;;;;;;;;;22.00;84.60;;;;;;5074009;28;20039;-53
2023/05/20 11:08:01;;;;;;;;;;;22.10;84.60;;;;;;5056066;28;19909;-52
2023/05/20 11:10:26;;;;;;;;;;;22.10;84.50;;;;;;5073968;28;19917;-52
2023/05/20 11:12:52;;;;;;;;;;;22.10;84.50;;;;;;5073753;28;19912;-53
2023/05/20 11:15:18;;;;;;;;;;;22.10;84.50;;;;;;5073449;28;19916;-52
2023/05/20 11:17:53;;;;;;;;;;;22.10;84.50;;;;;;5073736;28;19924;-54
2023/05/20 11:20:19;;;;;;;;;;;22.10;84.50;;;;;;5073671;28;19908;-53
2023/05/20 11:22:44;;;;;;;;;;;22.10;84.60;;;;;;5074013;28;19962;-47
2023/05/20 11:25:10;;;;;;;;;;;22.10;84.60;;;;;;5073781;28;20347;-51
2023/05/20 11:27:38;;;;;;;;;;;22.00;84.60;;;;;;5073956;28;19931;-52
2023/05/20 11:30:04;;;;;;;;;;;22.00;84.70;;;;;;5073445;28;19909;-50
2023/05/20 11:32:30;;;;;;;;;;;22.00;84.80;;;;;;5073552;28;19962;-51
2023/05/20 11:34:56;;;;;;;;;;;21.90;84.80;;;;;;5073457;28;19937;-50
2023/05/20 11:37:22;;;;;;;;;;;21.90;84.90;;;;;;5055307;28;19912;-54
2023/05/20 11:39:48;;;;;;;;;;;21.90;85.00;;;;;;5073532;28;19920;-50
2023/05/20 11:42:14;;;;;;;;;;;21.90;85.00;;;;;;5073361;28;19909;-53
2023/05/20 11:44:47;;;;;;;;;;;21.90;85.10;;;;;;5073739;28;19943;-54
2023/05/20 11:47:13;;;;;;;;;;;21.90;85.20;;;;;;5072975;28;19908;-51
2023/05/20 11:49:38;;;;;;;;;;;21.80;85.20;;;;;;5076113;28;19916;-52
2023/05/20 11:52:06;;;;;;;;;;;21.80;85.20;;;;;;5077551;28;19970;-53
2023/05/20 11:54:34;;;;;;;;;;;21.80;85.30;;;;;;5077260;28;19912;-54
2023/05/20 11:56:59;;;;;;;;;;;21.80;85.30;;;;;;5077214;28;19912;-51
2023/05/20 11:59:25;;;;;;;;;;;21.80;85.40;;;;;;5077022;28;19919;-50
2023/05/20 12:01:51;;;;;;;;;;;21.80;85.40;;;;;;5077390;28;20007;-52
2023/05/20 12:04:17;;;;;;;;;;;21.80;85.40;;;;;;5059253;28;19909;-51
2023/05/20 12:06:42;;;;;;;;;;;21.80;85.30;;;;;;5076939;28;19966;-54
2023/05/20 12:09:09;;;;;;;;;;;21.80;85.30;;;;;;5077003;28;19910;-53
2023/05/20 12:11:36;;;;;;;;;;;21.80;85.20;;;;;;5076609;28;20003;-51
2023/05/20 12:14:04;;;;;;;;;;;21.90;85.20;;;;;;5076968;28;19909;-51
2023/05/20 12:16:30;;;;;;;;;;;21.90;85.20;;;;;;5076872;28;19919;-53
2023/05/20 12:18:56;;;;;;;;;;;21.90;85.10;;;;;;5058854;28;20360;-53
2023/05/20 12:21:21;;;;;;;;;;;21.90;85.00;;;;;;5076753;28;20004;-54
2023/05/20 12:23:47;;;;;;;;;;;21.90;85.00;;;;;;5076840;28;19908;-51
2023/05/20 12:26:12;;;;;;;;;;;22.00;84.90;;;;;;5076891;28;20059;-51
2023/05/20 12:28:39;;;;;;;;;;;22.00;84.90;;;;;;5092060;28;19908;-51
2023/05/20 12:31:04;;;;;;;;;;;22.00;84.90;;;;;;5076654;28;19908;-50
2023/05/20 12:33:30;;;;;;;;;;;22.00;84.80;;;;;;5076753;28;19915;-54
2023/05/20 12:35:55;;;;;;;;;;;22.00;84.70;;;;;;5076593;28;19963;-53
2023/05/20 12:38:21;;;;;;;;;;;22.00;84.70;;;;;;5076706;28;20002;-51
2023/05/20 12:40:46;;;;;;;;;;;22.00;84.70;;;;;;5076521;28;19908;-52
2023/05/20 12:43:12;;;;;;;;;;;22.10;84.70;;;;;;5076398;28;19924;-53
2023/05/20 12:45:37;;;;;;;;;;;22.10;84.70;;;;;;5076368;28;19913;-53
2023/05/20 12:48:03;;;;;;;;;;;22.10;84.70;;;;;;5057953;28;19963;-52
2023/05/20 12:50:29;;;;;;;;;;;22.00;84.70;;;;;;5076341;28;20036;-55
2023/05/20 12:52:54;;;;;;;;;;;22.10;84.70;;;;;;5076238;28;20388;-48
2023/05/20 12:55:20;;;;;;;;;;;22.10;84.70;;;;;;5076066;28;20358;-51
2023/05/20 12:57:46;;;;;;;;;;;22.00;84.70;;;;;;5076323;28;19912;-51
2023/05/20 13:00:12;;;;;;;;;;;22.00;84.70;;;;;;5074566;28;19908;-51
2023/05/20 13:02:38;;;;;;;;;;;22.00;84.80;;;;;;5057927;28;20367;-53
2023/05/20 13:05:04;;;;;;;;;;;22.00;84.80;;;;;;5058046;28;19908;-52
2023/05/20 13:07:30;;;;;;;;;;;22.00;84.90;;;;;;5075984;28;19962;-51
2023/05/20 13:09:56;;;;;;;;;;;22.00;84.90;;;;;;5075841;28;19956;-50
2023/05/20 13:12:21;;;;;;;;;;;22.00;84.90;;;;;;5076158;28;20359;-52
2023/05/20 13:14:47;;;;;;;;;;;21.90;84.90;;;;;;5075525;28;19908;-53
2023/05/20 13:17:12;;;;;;;;;;;21.90;85.00;;;;;;5075658;28;19918;-50
2023/05/20 13:19:38;;;;;;;;;;;22.00;85.00;;;;;;5076033;28;19959;-51
2023/05/20 13:22:05;;;;;;;;;;;22.00;85.10;;;;;;5075889;28;19908;-49
2023/05/20 13:24:30;;;;;;;;;;;22.00;85.10;;;;;;5075709;28;19909;-54
2023/05/20 13:26:56;;;;;;;;;;;21.90;85.10;;;;;;5075431;28;19909;-50
2023/05/20 13:29:21;;;;;;;;;;;21.90;85.10;;;;;;5075506;28;20056;-51
2023/05/20 13:31:47;;;;;;;;;;;21.90;85.10;;;;;;5075350;28;19908;-52
2023/05/20 13:34:12;;;;;;;;;;;21.90;85.10;;;;;;5075658;28;19998;-51
2023/05/20 13:36:38;;;;;;;;;;;21.90;85.10;;;;;;5075111;28;19917;-48
2023/05/20 13:39:03;;;;;;;;;;;21.90;85.10;;;;;;5075037;28;19912;-53
2023/05/20 13:41:29;;;;;;;;;;;21.90;85.10;;;;;;5075264;28;19934;-52
2023/05/20 13:43:55;;;;;;;;;;;22.00;85.20;;;;;;5075153;28;20365;-50
2023/05/20 13:46:21;;;;;;;;;;;21.90;85.10;;;;;;5075112;28;19908;-49
2023/05/20 13:48:46;;;;;;;;;;;22.00;85.10;;;;;;5075110;28;19916;-49
2023/05/20 13:51:12;;;;;;;;;;;21.90;85.10;;;;;;5075298;28;19959;-52
2023/05/20 13:53:37;;;;;;;;;;;22.00;85.20;;;;;;5056900;28;20306;-55
2023/05/20 13:56:04;;;;;;;;;;;22.00;85.10;;;;;;5056974;28;19913;-50
2023/05/20 13:58:29;;;;;;;;;;;22.00;85.10;;;;;;5075169;28;19943;-55
2023/05/20 14:00:55;;;;;;;;;;;21.90;85.00;;;;;;5075365;28;19909;-54
2023/05/20 14:03:21;;;;;;;;;;;22.00;85.00;;;;;;5074950;28;19999;-50
2023/05/20 14:05:47;;;;;;;;;;;22.00;85.00;;;;;;5074919;28;20003;-55
2023/05/20 14:08:12;;;;;;;;;;;22.00;85.00;;;;;;5074877;28;20362;-53
2023/05/20 14:10:38;;;;;;;;;;;22.00;85.00;;;;;;5074430;28;19908;-51